createdAt,value
2018-08-31T00:00:43.023Z,1.42
2018-08-31T00:04:54.992Z,1.40
2018-08-31T00:08:04.893Z,1.50
2018-08-31T00:11:14.090Z,1.70
2018-08-31T00:14:12.388Z,1.35
2018-08-31T00:17:11.385Z,1.47
2018-08-31T00:20:09.652Z,1.42
2018-08-31T00:23:08.746Z,1.70
2018-08-31T00:26:30.449Z,1.22
2018-08-31T00:30:10.780Z,1.30
2018-08-31T00:33:21.283Z,1.75
2018-08-31T00:36:31.389Z,1.57
2018-08-31T00:39:43.957Z,1.50
2018-08-31T00:43:11.270Z,1.70
2018-08-31T00:46:10.571Z,1.22
2018-08-31T00:49:08.805Z,1.47
2018-08-31T00:52:06.739Z,1.42
2018-08-31T00:55:05.912Z,1.22
2018-08-31T00:58:03.980Z,1.32
2018-08-31T01:01:02.081Z,1.30
2018-08-31T01:04:01.289Z,1.60
2018-08-31T01:07:00.599Z,1.50
2018-08-31T01:09:59.528Z,1.40
2018-08-31T01:12:58.684Z,1.70
2018-08-31T01:15:56.981Z,1.65
2018-08-31T01:18:55.992Z,1.40
2018-08-31T01:21:55.031Z,1.30
2018-08-31T01:24:53.205Z,1.52
2018-08-31T01:27:51.333Z,1.75
2018-08-31T01:30:50.445Z,2.30
2018-08-31T01:33:48.436Z,1.40
2018-08-31T01:36:47.774Z,1.65
2018-08-31T01:39:45.826Z,1.60
2018-08-31T01:42:45.258Z,1.50
2018-08-31T01:45:43.461Z,1.70
2018-08-31T01:48:41.522Z,1.80
2018-08-31T01:51:40.025Z,1.57
2018-08-31T01:54:38.834Z,1.72
2018-08-31T01:57:37.915Z,1.60
2018-08-31T02:00:36.962Z,1.77
2018-08-31T02:03:36.194Z,1.90
2018-08-31T02:06:34.277Z,1.70
2018-08-31T02:09:32.587Z,1.40
2018-08-31T02:12:30.882Z,1.77
2018-08-31T02:15:30.367Z,2.00
2018-08-31T02:18:28.437Z,1.70
2018-08-31T02:21:27.309Z,1.55
2018-08-31T02:24:26.278Z,1.47
2018-08-31T02:27:24.533Z,1.40
2018-08-31T02:30:22.362Z,1.57
2018-08-31T02:33:21.778Z,1.50
2018-08-31T02:36:20.676Z,1.62
2018-08-31T02:39:19.145Z,1.62
2018-08-31T02:42:18.054Z,1.65
2018-08-31T02:45:17.458Z,1.32
2018-08-31T02:48:16.456Z,1.60
2018-08-31T02:51:14.630Z,1.47
2018-08-31T02:54:13.647Z,1.65
2018-08-31T02:57:11.985Z,1.87
2018-08-31T03:00:10.828Z,2.15
2018-08-31T03:03:08.877Z,1.50
2018-08-31T03:06:07.082Z,1.45
2018-08-31T03:09:05.627Z,1.62
2018-08-31T03:12:03.531Z,1.98
2018-08-31T03:15:02.801Z,1.80
2018-08-31T03:18:01.830Z,1.80
2018-08-31T03:21:00.145Z,1.65
2018-08-31T03:23:59.641Z,1.80
2018-08-31T03:26:57.857Z,1.80
2018-08-31T03:29:56.765Z,2.10
2018-08-31T03:32:56.005Z,1.90
2018-08-31T03:35:53.954Z,1.85
2018-08-31T03:38:53.087Z,1.98
2018-08-31T03:41:52.181Z,1.62
2018-08-31T03:44:50.470Z,1.85
2018-08-31T03:47:49.142Z,1.62
2018-08-31T03:50:47.040Z,1.62
2018-08-31T03:53:45.865Z,1.62
2018-08-31T03:56:45.121Z,1.35
2018-08-31T03:59:44.293Z,1.92
2018-08-31T04:02:43.545Z,1.80
2018-08-31T04:05:42.797Z,1.62
2018-08-31T04:08:41.214Z,1.65
2018-08-31T04:11:39.284Z,1.80
2018-08-31T04:14:37.616Z,2.00
2018-08-31T04:17:36.668Z,2.25
2018-08-31T04:20:34.695Z,1.77
2018-08-31T04:23:33.831Z,1.80
2018-08-31T04:26:33.072Z,2.00
2018-08-31T04:29:31.013Z,2.12
2018-08-31T04:32:29.449Z,2.12
2018-08-31T04:35:27.814Z,2.10
2018-08-31T04:38:27.108Z,2.17
2018-08-31T04:41:26.115Z,1.72
2018-08-31T04:44:25.697Z,2.08
2018-08-31T04:47:24.804Z,1.65
2018-08-31T04:50:24.111Z,1.92
2018-08-31T04:53:22.996Z,1.80
2018-08-31T04:56:23.222Z,1.77
2018-08-31T04:59:22.116Z,1.75
2018-08-31T05:02:20.420Z,1.60
2018-08-31T05:05:19.460Z,1.82
2018-08-31T05:08:19.015Z,1.62
2018-08-31T05:11:17.908Z,1.95
2018-08-31T05:14:17.230Z,1.52
2018-08-31T05:17:16.618Z,1.82
2018-08-31T05:20:15.635Z,2.10
2018-08-31T05:23:14.877Z,1.60
2018-08-31T05:26:13.427Z,2.05
2018-08-31T05:29:12.375Z,1.60
2018-08-31T05:32:10.283Z,2.02
2018-08-31T05:35:09.292Z,1.90
2018-08-31T05:38:08.617Z,2.35
2018-08-31T05:41:06.470Z,1.75
2018-08-31T05:44:04.683Z,1.90
2018-08-31T05:47:02.721Z,1.80
2018-08-31T05:50:01.009Z,1.90
2018-08-31T05:52:59.783Z,2.25
2018-08-31T05:55:58.364Z,2.00
2018-08-31T05:58:56.467Z,2.30
2018-08-31T06:01:55.590Z,2.27
2018-08-31T06:04:53.626Z,2.02
2018-08-31T06:07:51.642Z,2.05
2018-08-31T06:10:49.704Z,1.95
2018-08-31T06:13:48.042Z,2.30
2018-08-31T06:16:46.134Z,2.17
2018-08-31T06:19:44.609Z,2.50
2018-08-31T06:22:43.194Z,2.62
2018-08-31T06:25:41.365Z,2.00
2018-08-31T06:28:39.386Z,2.60
2018-08-31T06:31:37.455Z,2.83
2018-08-31T06:34:35.468Z,2.58
2018-08-31T06:37:33.717Z,2.70
2018-08-31T06:40:31.769Z,2.20
2018-08-31T06:43:29.589Z,2.72
2018-08-31T06:46:27.512Z,2.45
2018-08-31T06:49:26.677Z,2.20
2018-08-31T06:52:24.928Z,2.42
2018-08-31T06:55:22.937Z,2.37
2018-08-31T06:58:20.901Z,1.92
2018-08-31T07:01:20.169Z,2.02
2018-08-31T07:04:19.713Z,2.08
2018-08-31T07:07:18.289Z,2.15
2018-08-31T07:10:16.554Z,2.00
2018-08-31T07:13:14.935Z,1.98
2018-08-31T07:16:13.899Z,2.25
2018-08-31T07:19:12.036Z,2.33
2018-08-31T07:22:09.842Z,2.10
2018-08-31T07:25:07.986Z,2.62
2018-08-31T07:28:06.132Z,1.87
2018-08-31T07:31:05.424Z,1.82
2018-08-31T07:34:03.309Z,2.10
2018-08-31T07:37:01.300Z,1.47
2018-08-31T07:40:00.311Z,1.65
2018-08-31T07:42:58.895Z,1.77
2018-08-31T07:45:57.574Z,2.15
2018-08-31T07:48:55.582Z,2.10
2018-08-31T07:51:53.677Z,1.55
2018-08-31T07:54:51.829Z,2.08
2018-08-31T07:57:49.600Z,2.17
2018-08-31T08:00:47.634Z,2.05
2018-08-31T08:03:45.967Z,1.60
2018-08-31T08:06:43.994Z,1.75
2018-08-31T08:09:42.490Z,1.82
2018-08-31T08:12:41.721Z,1.70
2018-08-31T08:15:40.093Z,1.47
2018-08-31T08:18:38.348Z,1.20
2018-08-31T08:21:36.686Z,1.70
2018-08-31T08:24:34.811Z,1.62
2018-08-31T08:27:32.764Z,1.52
2018-08-31T08:30:30.944Z,1.95
2018-08-31T08:33:29.147Z,1.95
2018-08-31T08:36:27.206Z,1.50
2018-08-31T08:39:25.057Z,1.47
2018-08-31T08:42:23.264Z,1.30
2018-08-31T08:45:21.320Z,1.50
2018-08-31T08:48:19.778Z,1.50
2018-08-31T08:51:17.657Z,1.50
2018-08-31T08:54:15.973Z,1.25
2018-08-31T08:57:14.925Z,1.55
2018-08-31T09:00:13.273Z,1.70
2018-08-31T09:03:11.330Z,1.70
2018-08-31T09:06:09.469Z,1.40
2018-08-31T09:09:07.481Z,1.50
2018-08-31T09:12:05.953Z,1.55
2018-08-31T09:15:03.939Z,1.55
2018-08-31T09:18:02.097Z,1.65
2018-08-31T09:21:00.092Z,1.35
2018-08-31T09:23:58.450Z,1.30
2018-08-31T09:26:56.783Z,1.20
2018-08-31T09:29:55.500Z,1.75
2018-08-31T09:32:53.789Z,1.60
2018-08-31T09:35:52.026Z,1.30
2018-08-31T09:38:51.089Z,1.37
2018-08-31T09:41:49.477Z,1.75
2018-08-31T09:44:47.610Z,1.20
2018-08-31T09:47:45.690Z,1.40
2018-08-31T09:50:44.786Z,1.22
2018-08-31T09:53:43.112Z,1.32
2018-08-31T09:56:41.155Z,1.42
2018-08-31T09:59:39.571Z,1.42
2018-08-31T10:02:43.464Z,1.40
2018-08-31T10:05:41.565Z,1.55
2018-08-31T10:08:39.534Z,1.30
2018-08-31T10:11:37.919Z,1.20
2018-08-31T10:14:35.876Z,1.42
2018-08-31T10:17:34.350Z,1.20
2018-08-31T10:20:32.544Z,1.62
2018-08-31T10:23:30.727Z,1.20
2018-08-31T10:26:28.887Z,1.25
2018-08-31T10:29:27.031Z,1.30
2018-08-31T10:32:25.041Z,1.42
2018-08-31T10:35:23.324Z,1.30
2018-08-31T10:38:21.325Z,1.30
2018-08-31T10:41:21.766Z,1.37
2018-08-31T10:44:19.995Z,1.50
2018-08-31T10:47:18.129Z,1.40
2018-08-31T10:50:17.072Z,1.50
2018-08-31T10:53:15.122Z,1.50
2018-08-31T10:56:14.186Z,1.60
2018-08-31T10:59:12.291Z,1.30
2018-08-31T11:02:10.273Z,1.45
2018-08-31T11:05:08.371Z,1.57
2018-08-31T11:08:06.263Z,1.87
2018-08-31T11:11:04.321Z,1.40
2018-08-31T11:14:03.223Z,1.25
2018-08-31T11:17:01.656Z,1.57
2018-08-31T11:20:00.326Z,1.42
2018-08-31T11:22:58.501Z,1.60
2018-08-31T11:25:56.364Z,1.25
2018-08-31T11:28:54.670Z,1.47
2018-08-31T11:31:52.630Z,1.37
2018-08-31T11:34:50.863Z,1.50
2018-08-31T11:37:48.849Z,1.87
2018-08-31T11:40:47.138Z,1.70
2018-08-31T11:43:50.357Z,1.52
2018-08-31T11:46:48.570Z,1.32
2018-08-31T11:49:46.941Z,1.57
2018-08-31T11:52:45.358Z,1.80
2018-08-31T11:55:44.661Z,1.92
2018-08-31T11:58:42.833Z,1.85
2018-08-31T12:01:49.269Z,2.08
2018-08-31T12:04:47.460Z,2.40
2018-08-31T12:07:45.695Z,1.90
2018-08-31T12:10:43.789Z,2.10
2018-08-31T12:13:41.589Z,2.00
2018-08-31T12:16:39.887Z,1.98
2018-08-31T12:19:37.733Z,1.80
2018-08-31T12:22:35.854Z,2.12
2018-08-31T12:25:33.860Z,1.90
2018-08-31T12:28:33.102Z,2.08
2018-08-31T12:31:31.162Z,1.95
2018-08-31T12:34:30.282Z,1.92
2018-08-31T12:37:29.128Z,2.02
2018-08-31T12:40:28.323Z,2.58
2018-08-31T12:43:26.318Z,2.20
2018-08-31T12:46:24.680Z,2.20
2018-08-31T12:49:22.442Z,2.15
2018-08-31T12:52:20.580Z,2.42
2018-08-31T12:55:18.329Z,2.00
2018-08-31T12:58:16.666Z,2.08
2018-08-31T13:01:14.470Z,2.10
2018-08-31T13:04:12.977Z,2.00
2018-08-31T13:07:11.022Z,2.27
2018-08-31T13:10:09.064Z,2.42
2018-08-31T13:13:07.179Z,2.67
2018-08-31T13:16:06.560Z,2.40
2018-08-31T13:19:05.272Z,2.47
2018-08-31T13:22:03.395Z,2.37
2018-08-31T13:25:01.451Z,2.40
2018-08-31T13:27:59.574Z,2.42
2018-08-31T13:30:58.200Z,2.25
2018-08-31T13:33:57.282Z,2.50
2018-08-31T13:37:10.641Z,2.60
2018-08-31T13:40:08.940Z,2.55
2018-08-31T13:43:07.857Z,2.00
2018-08-31T13:46:07.400Z,2.10
2018-08-31T13:49:05.393Z,2.17
2018-08-31T13:52:03.402Z,2.10
2018-08-31T13:55:02.393Z,2.25
2018-08-31T13:58:00.626Z,1.98
2018-08-31T14:00:58.720Z,2.30
2018-08-31T14:03:57.847Z,1.92
2018-08-31T14:06:56.989Z,2.00
2018-08-31T14:09:55.102Z,1.77
2018-08-31T14:12:54.684Z,2.10
2018-08-31T14:15:54.334Z,2.10
2018-08-31T14:18:52.997Z,2.42
2018-08-31T14:21:51.118Z,2.33
2018-08-31T14:24:49.380Z,2.17
2018-08-31T14:27:47.300Z,2.17
2018-08-31T14:30:45.496Z,2.20
2018-08-31T14:33:44.555Z,2.30
2018-08-31T14:36:42.565Z,2.35
2018-08-31T14:39:41.490Z,1.90
2018-08-31T14:42:39.708Z,2.02
2018-08-31T14:45:38.735Z,2.45
2018-08-31T14:48:36.783Z,2.12
2018-08-31T14:51:34.886Z,1.80
2018-08-31T14:54:33.738Z,2.08
2018-08-31T14:57:31.926Z,2.37
2018-08-31T15:00:30.140Z,2.22
2018-08-31T15:03:28.094Z,2.30
2018-08-31T15:06:27.081Z,2.70
2018-08-31T15:09:24.966Z,2.60
2018-08-31T15:12:23.066Z,2.90
2018-08-31T15:15:22.166Z,2.77
2018-08-31T15:18:21.295Z,2.75
2018-08-31T15:21:19.416Z,3.12
2018-08-31T15:24:18.136Z,3.40
2018-08-31T15:27:16.357Z,3.50
2018-08-31T15:30:14.736Z,2.92
2018-08-31T15:33:12.697Z,3.80
2018-08-31T15:36:10.914Z,2.90
2018-08-31T15:39:08.976Z,3.75
2018-08-31T15:42:07.218Z,3.35
2018-08-31T15:45:05.276Z,3.33
2018-08-31T15:48:04.362Z,3.37
2018-08-31T15:51:02.235Z,3.87
2018-08-31T15:54:00.488Z,3.70
2018-08-31T15:56:59.147Z,3.72
2018-08-31T15:59:57.060Z,3.72
2018-08-31T16:02:55.055Z,3.98
2018-08-31T16:05:53.088Z,3.98
2018-08-31T16:08:51.051Z,4.85
2018-08-31T16:11:50.121Z,4.15
2018-08-31T16:14:48.238Z,5.15
2018-08-31T16:17:47.310Z,5.53
2018-08-31T16:20:46.231Z,5.72
2018-08-31T16:23:44.174Z,5.80
2018-08-31T16:26:42.224Z,5.50
2018-08-31T16:29:43.284Z,6.20
2018-08-31T16:32:41.362Z,7.30
2018-08-31T16:35:39.721Z,5.80
2018-08-31T16:38:37.681Z,6.05
2018-08-31T16:41:35.764Z,5.33
2018-08-31T16:44:33.553Z,4.87
2018-08-31T16:47:32.911Z,5.72
2018-08-31T16:50:30.679Z,5.28
2018-08-31T16:53:30.205Z,5.28
2018-08-31T16:56:29.976Z,6.15
2018-08-31T16:59:27.816Z,5.33
2018-08-31T17:02:25.853Z,5.97
2018-08-31T17:05:24.128Z,5.58
2018-08-31T17:08:22.190Z,5.45
2018-08-31T17:11:20.233Z,5.25
2018-08-31T17:14:19.281Z,5.85
2018-08-31T17:17:17.552Z,5.15
2018-08-31T17:20:16.665Z,4.40
2018-08-31T17:23:15.649Z,4.97
2018-08-31T17:26:14.544Z,4.62
2018-08-31T17:29:18.754Z,5.40
2018-08-31T17:32:22.938Z,4.83
2018-08-31T17:35:26.912Z,4.22
2018-08-31T17:38:26.211Z,4.95
2018-08-31T17:41:24.054Z,4.37
2018-08-31T17:44:23.158Z,4.22
2018-08-31T17:47:23.519Z,3.83
2018-08-31T17:50:23.549Z,4.65
2018-08-31T17:53:22.358Z,4.65
2018-08-31T17:56:21.586Z,3.72
2018-08-31T17:59:21.789Z,3.62
2018-08-31T18:02:21.364Z,4.67
2018-08-31T18:05:20.876Z,4.10
2018-08-31T18:08:19.272Z,4.05
2018-08-31T18:11:18.661Z,4.08
2018-08-31T18:14:16.853Z,4.67
2018-08-31T18:17:15.952Z,4.37
2018-08-31T18:20:15.049Z,4.70
2018-08-31T18:23:14.335Z,4.40
2018-08-31T18:26:13.516Z,4.60
2018-08-31T18:29:11.696Z,5.12
2018-08-31T18:32:11.446Z,6.12
2018-08-31T18:35:10.755Z,7.22
2018-08-31T18:38:09.953Z,6.78
2018-08-31T18:41:09.162Z,7.58
2018-08-31T18:44:08.365Z,7.72
2018-08-31T18:47:06.955Z,7.35
2018-08-31T18:50:06.769Z,8.15
2018-08-31T18:53:05.870Z,8.85
2018-08-31T18:56:04.974Z,8.70
2018-08-31T18:59:03.182Z,8.68
2018-08-31T19:02:02.279Z,8.53
2018-08-31T19:05:01.584Z,8.53
2018-08-31T19:08:01.058Z,8.23
2018-08-31T19:11:00.440Z,7.60
2018-08-31T19:13:59.827Z,8.20
2018-08-31T19:16:59.484Z,7.80
2018-08-31T19:19:58.492Z,7.75
2018-08-31T19:22:56.856Z,8.18
2018-08-31T19:25:55.866Z,8.18
2018-08-31T19:28:54.112Z,6.97
2018-08-31T19:31:52.112Z,7.12
2018-08-31T19:34:51.214Z,7.28
2018-08-31T19:37:50.420Z,6.37
2018-08-31T19:40:48.425Z,7.25
2018-08-31T19:43:47.498Z,6.62
2018-08-31T19:46:46.767Z,6.75
2018-08-31T19:49:45.500Z,6.30
2018-08-31T19:52:43.862Z,5.87
2018-08-31T19:55:42.750Z,6.40
2018-08-31T19:58:40.941Z,6.30
2018-08-31T20:01:40.040Z,6.08
2018-08-31T20:04:39.072Z,5.72
2018-08-31T20:07:37.126Z,5.60
2018-08-31T20:10:35.184Z,5.05
2018-08-31T20:13:33.570Z,5.20
2018-08-31T20:16:32.582Z,5.72
2018-08-31T20:19:30.973Z,5.35
2018-08-31T20:22:33.588Z,5.10
2018-08-31T20:25:31.832Z,5.25
2018-08-31T20:28:33.385Z,4.53
2018-08-31T20:31:31.465Z,4.45
2018-08-31T20:34:30.877Z,5.03
2018-08-31T20:37:29.767Z,4.72
2018-08-31T20:40:28.795Z,4.65
2018-08-31T20:43:26.741Z,4.45
2018-08-31T20:46:26.130Z,4.25
2018-08-31T20:49:25.754Z,4.17
2018-08-31T20:52:25.088Z,4.03
2018-08-31T20:55:24.373Z,4.40
2018-08-31T20:58:23.808Z,4.28
2018-08-31T21:01:21.952Z,3.83
2018-08-31T21:04:21.065Z,4.22
2018-08-31T21:07:21.286Z,3.60
2018-08-31T21:10:19.537Z,3.25
2018-08-31T21:13:18.631Z,3.22
2018-08-31T21:16:17.909Z,3.50
2018-08-31T21:19:15.985Z,3.83
2018-08-31T21:22:15.307Z,3.58
2018-08-31T21:25:14.134Z,3.47
2018-08-31T21:28:12.203Z,3.47
2018-08-31T21:31:11.303Z,2.90
2018-08-31T21:34:09.529Z,3.35
2018-08-31T21:37:07.534Z,3.22
2018-08-31T21:40:05.796Z,2.98
2018-08-31T21:43:03.551Z,3.08
2018-08-31T21:46:01.694Z,3.15
2018-08-31T21:48:59.619Z,3.08
2018-08-31T21:51:57.748Z,2.87
2018-08-31T21:54:55.731Z,2.80
2018-08-31T21:57:55.055Z,3.10
2018-08-31T22:00:53.414Z,3.05
2018-08-31T22:03:52.717Z,2.92
2018-08-31T22:06:51.913Z,2.80
2018-08-31T22:09:50.562Z,2.90
2018-08-31T22:12:50.425Z,2.92
2018-08-31T22:15:48.770Z,2.67
2018-08-31T22:18:47.502Z,2.40
2018-08-31T22:21:45.843Z,2.60
2018-08-31T22:24:43.738Z,2.20
2018-08-31T22:27:41.828Z,2.47
2018-08-31T22:30:39.995Z,2.40
2018-08-31T22:33:39.298Z,2.70
2018-08-31T22:36:39.423Z,2.45
2018-08-31T22:39:37.774Z,2.33
2018-08-31T22:42:36.001Z,2.37
2018-08-31T22:45:33.971Z,2.12
2018-08-31T22:48:32.602Z,2.27
2018-08-31T22:51:31.863Z,2.50
2018-08-31T22:54:31.783Z,2.40
2018-08-31T22:57:31.498Z,2.15
2018-08-31T23:00:30.568Z,2.20
2018-08-31T23:03:28.989Z,2.00
2018-08-31T23:06:28.287Z,2.33
2018-08-31T23:09:27.374Z,2.12
2018-08-31T23:12:25.360Z,2.40
2018-08-31T23:15:24.484Z,2.12
2018-08-31T23:18:23.424Z,1.80
2018-08-31T23:21:23.604Z,2.08
2018-08-31T23:24:22.841Z,2.12
2018-08-31T23:27:23.220Z,2.08
2018-08-31T23:30:23.451Z,2.22
2018-08-31T23:33:22.548Z,2.08
2018-08-31T23:36:20.628Z,2.37
2018-08-31T23:39:19.819Z,1.80
2018-08-31T23:42:19.443Z,2.00
2018-08-31T23:45:19.051Z,1.92
2018-08-31T23:48:17.935Z,2.00
2018-08-31T23:51:17.656Z,1.85
2018-08-31T23:54:16.858Z,1.62
2018-08-31T23:57:15.347Z,1.87
